Time;durP1;ratioP1;P1;durP2;ratioP2;P2;SDS_P1;SDS_P2;PMS_P1;PMS_P2;Temp;Humidity;BMP_temperature;BMP_pressure;BME280_temperature;BME280_humidity;BME280_pressure;Samples;Min_cycle;Max_cycle;Signal;HPM_P1;HPM_P2
2023/05/17 00:01:34;;;;;;;10.02;6.40;;;14.10;99.90;;;;;;5012406;28;20214;-84
2023/05/17 00:03:59;;;;;;;10.45;6.05;;;14.10;99.90;;;;;;5000696;28;20166;-84
2023/05/17 00:06:25;;;;;;;10.52;6.22;;;14.10;99.90;;;;;;4964119;28;20985;-84
2023/05/17 00:08:51;;;;;;;7.65;5.88;;;14.10;99.90;;;;;;4979268;28;20257;-84
2023/05/17 00:11:16;;;;;;;9.77;6.20;;;14.10;99.90;;;;;;4963743;28;20187;-83
2023/05/17 00:13:42;;;;;;;9.27;6.55;;;;;;;;;;4980788;28;20243;-84
2023/05/17 00:16:08;;;;;;;9.48;6.43;;;14.10;99.90;;;;;;4984500;28;20187;-84
2023/05/17 00:18:34;;;;;;;9.95;6.00;;;14.00;99.90;;;;;;4962629;28;20185;-84
2023/05/17 00:20:59;;;;;;;8.15;5.65;;;14.10;99.90;;;;;;4976207;28;20253;-84
2023/05/17 00:23:25;;;;;;;8.10;5.82;;;14.00;99.90;;;;;;4975866;28;20581;-84
2023/05/17 00:25:51;;;;;;;8.40;6.47;;;14.00;99.90;;;;;;4958912;28;20202;-84
2023/05/17 00:28:16;;;;;;;8.88;5.90;;;14.00;99.90;;;;;;4959090;28;20178;-85
2023/05/17 00:30:42;;;;;;;10.68;5.43;;;14.00;99.90;;;;;;4975161;28;20286;-84
2023/05/17 00:33:08;;;;;;;9.35;5.75;;;14.00;99.90;;;;;;4976052;28;20632;-84
2023/05/17 00:35:33;;;;;;;8.43;5.63;;;13.90;99.90;;;;;;4975950;28;20178;-84
2023/05/17 00:37:59;;;;;;;11.00;6.43;;;14.00;99.90;;;;;;4975838;28;20208;-84
2023/05/17 00:40:25;;;;;;;9.77;6.18;;;14.00;99.90;;;;;;4975321;28;20661;-84
2023/05/17 00:42:50;;;;;;;9.75;5.90;;;14.00;99.90;;;;;;4974677;28;20320;-84
2023/05/17 00:45:16;;;;;;;9.25;5.63;;;13.90;99.90;;;;;;4990514;28;20206;-84
2023/05/17 00:47:42;;;;;;;9.50;6.32;;;14.00;99.90;;;;;;4975027;28;20545;-84
2023/05/17 00:50:08;;;;;;;7.53;5.25;;;14.00;99.90;;;;;;4975672;28;20202;-84
2023/05/17 00:52:35;;;;;;;7.03;5.15;;;13.90;99.90;;;;;;4958576;28;20179;-84
2023/05/17 00:55:01;;;;;;;8.30;5.15;;;13.90;99.90;;;;;;4958621;28;20193;-84
2023/05/17 00:57:30;;;;;;;9.10;5.35;;;13.90;99.90;;;;;;4975406;28;20213;-84
2023/05/17 00:59:56;;;;;;;6.40;5.57;;;13.90;99.90;;;;;;4975733;28;20274;-84
2023/05/17 01:02:23;;;;;;;8.38;5.50;;;13.90;99.90;;;;;;4974721;28;20277;-84
2023/05/17 01:04:49;;;;;;;13.95;6.32;;;13.80;99.90;;;;;;4990490;28;20229;-84
2023/05/17 01:07:16;;;;;;;7.38;5.22;;;13.80;99.90;;;;;;4958129;28;20198;-84
2023/05/17 01:09:42;;;;;;;8.65;5.78;;;13.80;99.90;;;;;;4958103;28;20193;-84
2023/05/17 01:12:29;;;;;;;9.52;6.40;;;13.80;99.90;;;;;;4975334;28;20175;-84
2023/05/17 01:15:15;;;;;;;8.38;5.45;;;13.80;99.90;;;;;;4975657;28;20171;-84
2023/05/17 01:17:55;;;;;;;8.38;5.65;;;13.70;99.90;;;;;;4975180;28;20174;-84
2023/05/17 01:20:45;;;;;;;7.35;5.45;;;13.70;99.90;;;;;;4974839;28;20506;-84
2023/05/17 01:23:19;;;;;;;9.13;5.82;;;13.70;99.90;;;;;;4957715;28;20179;-83
2023/05/17 01:26:06;;;;;;;9.10;5.15;;;13.60;99.90;;;;;;4973915;28;20678;-83
2023/05/17 01:28:33;;;;;;;7.95;5.55;;;13.60;99.90;;;;;;4974918;28;20545;-83
2023/05/17 01:31:02;;;;;;;9.82;5.85;;;13.60;99.90;;;;;;4975172;28;20171;-84
2023/05/17 01:33:28;;;;;;;7.80;6.03;;;13.60;99.90;;;;;;4973558;28;20183;-84
2023/05/17 01:35:54;;;;;;;10.88;7.15;;;13.60;99.90;;;;;;4975175;28;20177;-83
2023/05/17 01:38:20;;;;;;;9.25;6.57;;;13.60;99.90;;;;;;4973490;28;20183;-83
2023/05/17 01:41:02;;;;;;;12.55;8.25;;;13.60;99.90;;;;;;4957509;28;20177;-83
2023/05/17 01:43:46;;;;;;;11.50;8.00;;;13.60;99.90;;;;;;4974899;28;20222;-83
2023/05/17 01:46:26;;;;;;;16.55;9.32;;;13.60;99.90;;;;;;4990029;28;20265;-83
2023/05/17 01:49:07;;;;;;;13.70;8.80;;;13.60;99.90;;;;;;4975062;28;20206;-84
2023/05/17 01:51:36;;;;;;;15.18;9.55;;;13.60;99.90;;;;;;4973411;28;20175;-83
2023/05/17 01:54:10;;;;;;;12.63;8.32;;;13.60;99.90;;;;;;4974516;28;20182;-83
2023/05/17 01:56:39;;;;;;;12.85;8.52;;;13.40;99.90;;;;;;4973354;28;20229;-83
2023/05/17 01:59:06;;;;;;;13.98;8.93;;;13.60;99.90;;;;;;4989788;28;20186;-84
2023/05/17 02:01:33;;;;;;;14.43;7.65;;;13.60;99.90;;;;;;4974417;28;20202;-84
2023/05/17 02:04:00;;;;;;;7.03;5.90;;;;;;;;;;4973533;28;20193;-83
2023/05/17 02:06:25;;;;;;;9.45;6.15;;;13.50;99.90;;;;;;4974350;28;20309;-83
2023/05/17 02:08:51;;;;;;;9.10;6.13;;;13.80;99.90;;;;;;4957785;28;20224;-82
2023/05/17 02:11:17;;;;;;;11.63;5.90;;;;;;;;;;4974461;28;20174;-83
2023/05/17 02:13:43;;;;;;;9.80;5.70;;;13.40;99.90;;;;;;4972484;28;20267;-83
2023/05/17 02:16:09;;;;;;;9.40;5.85;;;;;;;;;;4974406;28;20207;-83
2023/05/17 02:18:36;;;;;;;8.20;5.70;;;13.50;99.90;;;;;;4972648;28;20189;-83
2023/05/17 02:21:03;;;;;;;11.82;6.75;;;13.50;99.90;;;;;;4957404;28;20178;-83
2023/05/17 02:23:28;;;;;;;7.82;5.45;;;13.50;99.90;;;;;;4974209;28;20187;-83
2023/05/17 02:25:54;;;;;;;7.38;5.38;;;13.40;99.90;;;;;;4956871;28;20209;-83
2023/05/17 02:28:20;;;;;;;7.63;6.15;;;13.40;99.90;;;;;;4957072;28;20190;-82
2023/05/17 02:30:45;;;;;;;10.27;6.28;;;13.40;99.90;;;;;;4972880;28;20189;-83
2023/05/17 02:33:11;;;;;;;8.40;5.80;;;13.40;99.90;;;;;;4974413;28;20209;-83
2023/05/17 02:35:36;;;;;;;8.15;5.93;;;13.30;99.90;;;;;;4988873;28;20182;-83
2023/05/17 02:38:02;;;;;;;6.75;4.97;;;13.30;99.90;;;;;;4957025;28;20515;-83
2023/05/17 02:40:28;;;;;;;7.07;5.35;;;13.30;99.90;;;;;;4963828;28;20178;-83
2023/05/17 02:42:54;;;;;;;9.27;5.88;;;13.30;99.90;;;;;;4972701;28;20242;-83
2023/05/17 02:45:20;;;;;;;7.90;5.55;;;13.30;99.90;;;;;;4974382;28;20211;-83
2023/05/17 02:47:46;;;;;;;8.07;5.78;;;13.30;99.90;;;;;;4974002;28;20662;-83
2023/05/17 02:50:12;;;;;;;7.78;5.68;;;13.30;99.90;;;;;;4973020;28;20193;-82
2023/05/17 02:52:37;;;;;;;7.28;5.38;;;13.30;99.90;;;;;;4956565;28;20637;-83
2023/05/17 02:55:03;;;;;;;7.65;5.22;;;13.30;99.90;;;;;;4956940;28;20182;-82
2023/05/17 02:57:29;;;;;;;7.68;5.40;;;13.20;99.90;;;;;;4973821;28;20174;-82
2023/05/17 02:59:55;;;;;;;10.80;5.75;;;13.20;99.90;;;;;;4973872;28;20182;-82
2023/05/17 03:02:20;;;;;;;6.40;5.32;;;13.20;99.90;;;;;;4974037;28;20242;-83
2023/05/17 03:04:46;;;;;;;9.90;6.90;;;13.20;99.90;;;;;;4956610;28;20179;-82
2023/05/17 03:07:12;;;;;;;10.00;6.10;;;13.20;99.90;;;;;;4956998;28;20245;-83
2023/05/17 03:09:37;;;;;;;8.02;6.30;;;13.20;99.90;;;;;;4956362;28;20190;-83
2023/05/17 03:12:03;;;;;;;9.95;5.85;;;13.20;99.90;;;;;;4972990;28;20264;-82
2023/05/17 03:14:30;;;;;;;9.45;6.63;;;13.20;99.90;;;;;;4974177;28;20668;-83
2023/05/17 03:16:55;;;;;;;9.85;6.07;;;13.20;99.90;;;;;;4974316;28;20186;-82
2023/05/17 03:19:21;;;;;;;8.27;5.68;;;13.20;99.90;;;;;;4974054;28;20181;-82
2023/05/17 03:21:47;;;;;;;8.10;5.78;;;13.10;99.90;;;;;;4973729;28;20540;-82
2023/05/17 03:24:12;;;;;;;7.68;5.53;;;13.10;99.90;;;;;;4972630;28;20186;-82
2023/05/17 03:26:38;;;;;;;9.00;6.68;;;13.10;99.90;;;;;;4973967;28;20214;-83
2023/05/17 03:29:04;;;;;;;12.30;6.18;;;13.10;99.90;;;;;;4967546;28;20560;-82
2023/05/17 03:31:30;;;;;;;10.20;7.25;;;;;;;;;;5008204;28;20660;-82
2023/05/17 03:33:56;;;;;;;12.43;6.85;;;13.10;99.90;;;;;;4977629;28;20264;-82
2023/05/17 03:36:22;;;;;;;10.38;6.28;;;13.10;99.90;;;;;;5003053;28;20191;-82
2023/05/17 03:38:47;;;;;;;10.48;6.35;;;13.10;99.90;;;;;;4999526;28;20171;-82
2023/05/17 03:41:14;;;;;;;9.13;5.97;;;13.20;99.90;;;;;;4988886;28;20197;-83
2023/05/17 03:43:40;;;;;;;10.85;6.25;;;13.10;99.90;;;;;;4990646;28;20222;-82
2023/05/17 03:46:05;;;;;;;10.07;6.75;;;13.10;99.90;;;;;;4971541;28;20297;-83
2023/05/17 03:48:31;;;;;;;11.38;6.10;;;13.20;99.90;;;;;;4990009;28;20563;-82
2023/05/17 03:50:57;;;;;;;11.73;6.18;;;13.20;99.90;;;;;;4973776;28;20191;-82
2023/05/17 03:53:23;;;;;;;10.05;6.85;;;13.00;99.90;;;;;;4976415;28;20190;-82
2023/05/17 03:55:48;;;;;;;9.38;6.15;;;13.20;99.90;;;;;;4989727;28;20194;-82
2023/05/17 03:58:14;;;;;;;11.35;7.05;;;13.20;99.90;;;;;;4974005;28;20652;-82
2023/05/17 04:00:40;;;;;;;16.70;6.40;;;13.20;99.90;;;;;;4974341;28;20763;-82
2023/05/17 04:03:05;;;;;;;9.10;6.55;;;13.20;99.90;;;;;;4972249;28;20683;-83
2023/05/17 04:05:31;;;;;;;10.48;7.10;;;13.30;99.90;;;;;;5006442;28;20190;-81
2023/05/17 04:07:57;;;;;;;9.07;6.30;;;13.30;99.90;;;;;;4994019;28;20201;-82
2023/05/17 04:10:23;;;;;;;8.43;5.85;;;13.30;99.90;;;;;;4993234;28;20199;-82
2023/05/17 04:12:48;;;;;;;12.43;7.85;;;13.30;99.90;;;;;;4957152;29;20278;-83
2023/05/17 04:15:14;;;;;;;9.38;6.50;;;13.30;99.90;;;;;;4982717;28;20533;-82
2023/05/17 04:17:40;;;;;;;11.50;7.03;;;;;;;;;;4997995;28;20202;-82
2023/05/17 04:20:06;;;;;;;11.60;7.38;;;13.40;99.90;;;;;;5015174;28;20234;-81
2023/05/17 04:22:32;;;;;;;11.27;7.80;;;13.40;99.90;;;;;;5000623;28;20198;-82
2023/05/17 04:24:58;;;;;;;10.23;6.97;;;13.40;99.90;;;;;;4995831;28;20190;-82
2023/05/17 04:27:24;;;;;;;10.98;7.03;;;13.50;99.90;;;;;;4980590;28;20214;-82
2023/05/17 04:29:50;;;;;;;11.55;7.35;;;13.50;99.90;;;;;;4979811;28;20194;-83
2023/05/17 04:32:16;;;;;;;11.05;7.18;;;13.50;99.90;;;;;;4997580;28;20171;-84
2023/05/17 04:34:43;;;;;;;9.55;7.13;;;13.60;99.90;;;;;;4997892;28;20194;-84
2023/05/17 04:37:09;;;;;;;9.57;6.28;;;13.60;99.90;;;;;;4997519;28;20186;-85
2023/05/17 04:39:35;;;;;;;10.05;7.07;;;13.60;99.90;;;;;;5007271;28;20269;-85
2023/05/17 04:42:01;;;;;;;11.70;7.45;;;13.70;99.90;;;;;;4974194;28;20322;-85
2023/05/17 04:44:26;;;;;;;11.63;7.88;;;13.70;99.90;;;;;;4989805;28;20193;-84
2023/05/17 04:46:52;;;;;;;11.93;6.95;;;13.80;99.90;;;;;;4974348;28;20213;-85
2023/05/17 04:49:24;;;;;;;10.40;7.35;;;13.90;99.90;;;;;;4974406;28;20718;-85
2023/05/17 04:51:50;;;;;;;11.23;7.72;;;13.90;99.90;;;;;;4984169;28;20278;-84
2023/05/17 04:54:16;;;;;;;10.88;7.53;;;14.00;99.90;;;;;;4975788;28;20269;-85
2023/05/17 04:56:41;;;;;;;12.93;7.03;;;14.10;99.90;;;;;;4957643;28;20198;-85
2023/05/17 04:59:07;;;;;;;9.57;6.78;;;14.10;99.90;;;;;;4990673;28;20221;-84
2023/05/17 05:01:34;;;;;;;11.55;7.63;;;14.10;99.90;;;;;;4996108;28;20202;-84
2023/05/17 05:04:05;;;;;;;17.10;7.40;;;14.20;99.90;;;;;;4977166;28;20643;-84
2023/05/17 05:06:31;;;;;;;10.68;7.45;;;14.20;99.90;;;;;;4975163;28;20202;-84
2023/05/17 05:08:57;;;;;;;11.38;7.53;;;14.30;99.90;;;;;;4975383;28;20253;-83
2023/05/17 05:11:23;;;;;;;11.43;8.05;;;14.40;99.90;;;;;;4975195;28;20182;-84
2023/05/17 05:13:48;;;;;;;14.50;8.88;;;14.40;99.90;;;;;;4975614;28;20182;-84
2023/05/17 05:16:14;;;;;;;10.38;7.20;;;14.50;99.90;;;;;;4975178;28;20186;-84
2023/05/17 05:18:40;;;;;;;14.40;8.90;;;14.50;99.90;;;;;;4990560;28;20273;-84
2023/05/17 05:21:05;;;;;;;13.10;8.25;;;14.60;99.90;;;;;;4989927;28;20217;-84
2023/05/17 05:23:31;;;;;;;13.98;8.93;;;14.70;99.90;;;;;;4975859;28;20206;-84
2023/05/17 05:25:57;;;;;;;10.27;7.95;;;;;;;;;;4990508;28;20285;-84
2023/05/17 05:28:23;;;;;;;11.07;7.22;;;14.80;99.90;;;;;;4975521;28;20187;-84
2023/05/17 05:30:48;;;;;;;9.80;7.18;;;14.90;99.90;;;;;;4990211;28;20178;-84
2023/05/17 05:33:14;;;;;;;13.35;7.45;;;14.90;99.90;;;;;;4989702;28;20186;-84
2023/05/17 05:35:40;;;;;;;11.57;8.52;;;14.90;99.90;;;;;;4974132;28;20273;-84
2023/05/17 05:38:06;;;;;;;10.30;7.05;;;15.00;99.90;;;;;;4989782;28;20225;-84
2023/05/17 05:40:32;;;;;;;14.30;7.47;;;15.10;99.90;;;;;;4973941;28;20183;-84
2023/05/17 05:42:57;;;;;;;10.82;7.13;;;15.10;99.90;;;;;;4973103;28;20739;-84
2023/05/17 05:45:23;;;;;;;10.35;7.18;;;15.10;99.90;;;;;;4957709;28;20194;-84
2023/05/17 05:47:49;;;;;;;10.90;6.93;;;15.10;99.90;;;;;;4975011;28;20183;-84
2023/05/17 05:50:15;;;;;;;11.80;6.95;;;15.20;99.90;;;;;;4974307;28;20179;-84
2023/05/17 05:52:41;;;;;;;12.45;7.47;;;15.00;99.90;;;;;;4976245;28;20185;-84
2023/05/17 05:55:06;;;;;;;12.38;7.70;;;15.10;99.90;;;;;;4975244;28;20178;-84
2023/05/17 05:57:33;;;;;;;9.10;6.38;;;;;;;;;;4975703;28;20221;-84
2023/05/17 05:59:58;;;;;;;13.98;7.15;;;15.10;99.90;;;;;;4977709;28;20174;-84
2023/05/17 06:02:25;;;;;;;10.25;7.00;;;15.20;99.90;;;;;;4966298;28;20268;-84
2023/05/17 06:04:50;;;;;;;12.40;6.22;;;15.20;99.90;;;;;;4978585;28;20552;-84
2023/05/17 06:07:17;;;;;;;10.95;6.72;;;15.20;99.90;;;;;;4995880;28;20206;-83
2023/05/17 06:09:42;;;;;;;11.13;7.40;;;15.30;99.90;;;;;;4993575;28;20269;-84
2023/05/17 06:12:08;;;;;;;9.70;6.25;;;15.40;99.90;;;;;;4985532;28;20187;-84
2023/05/17 06:14:36;;;;;;;9.23;6.75;;;15.50;99.90;;;;;;4993439;28;20190;-84
2023/05/17 06:17:01;;;;;;;10.25;7.60;;;15.60;99.90;;;;;;4974566;28;20193;-85
2023/05/17 06:19:27;;;;;;;11.50;7.93;;;15.60;99.90;;;;;;4977203;28;20258;-83
2023/05/17 06:21:53;;;;;;;9.45;6.90;;;15.70;99.90;;;;;;4963320;28;20252;-84
2023/05/17 06:24:18;;;;;;;10.23;6.97;;;15.70;99.90;;;;;;4999498;28;20175;-86
2023/05/17 06:26:45;;;;;;;11.20;7.50;;;15.70;99.90;;;;;;4985153;28;20211;-84
2023/05/17 06:29:11;;;;;;;11.93;7.57;;;15.70;99.90;;;;;;4993868;28;20201;-84
2023/05/17 06:31:37;;;;;;;8.25;6.90;;;15.70;99.90;;;;;;4990152;28;20637;-84
2023/05/17 06:34:02;;;;;;;10.10;6.80;;;15.70;99.90;;;;;;4974283;28;20174;-84
2023/05/17 06:36:28;;;;;;;10.68;6.90;;;15.70;99.90;;;;;;4989411;28;20202;-84
2023/05/17 06:38:54;;;;;;;10.70;7.55;;;15.70;99.90;;;;;;4989398;28;20249;-84
2023/05/17 06:41:19;;;;;;;12.30;7.25;;;15.70;99.90;;;;;;4974332;28;20683;-84
2023/05/17 06:43:45;;;;;;;12.88;7.47;;;15.80;99.90;;;;;;4989864;28;20181;-84
2023/05/17 06:46:11;;;;;;;10.07;7.10;;;15.70;99.90;;;;;;4990170;28;20284;-84
2023/05/17 06:48:37;;;;;;;11.20;7.68;;;15.80;99.90;;;;;;4973177;28;20190;-84
2023/05/17 06:51:02;;;;;;;11.57;7.40;;;15.80;99.90;;;;;;4973136;28;20237;-84
2023/05/17 06:53:28;;;;;;;9.57;6.55;;;15.80;99.90;;;;;;4973274;28;20273;-84
2023/05/17 06:55:54;;;;;;;9.75;6.80;;;15.80;99.90;;;;;;4989409;28;20187;-84
2023/05/17 06:58:19;;;;;;;9.38;6.97;;;15.80;99.90;;;;;;4972773;28;20183;-85
2023/05/17 07:00:45;;;;;;;12.07;7.55;;;15.80;99.90;;;;;;4973278;28;20628;-84
2023/05/17 07:03:11;;;;;;;11.73;7.63;;;15.70;99.90;;;;;;4977765;28;20528;-84
2023/05/17 07:05:36;;;;;;;10.95;7.30;;;15.70;99.90;;;;;;4993268;28;20183;-84
2023/05/17 07:08:02;;;;;;;10.27;8.00;;;15.70;99.90;;;;;;4978900;28;20521;-84
2023/05/17 07:10:28;;;;;;;12.10;8.65;;;15.80;99.90;;;;;;4978784;28;20186;-84
2023/05/17 07:12:54;;;;;;;17.73;11.90;;;15.70;99.90;;;;;;4994221;28;20195;-84
2023/05/17 07:15:19;;;;;;;16.38;10.85;;;15.80;99.90;;;;;;4996852;28;20166;-83
2023/05/17 07:17:45;;;;;;;15.35;10.23;;;15.80;99.90;;;;;;5017235;28;20162;-83
2023/05/17 07:20:11;;;;;;;14.30;9.65;;;15.80;99.90;;;;;;4981546;28;20696;-83
2023/05/17 07:22:37;;;;;;;11.52;7.50;;;15.90;99.90;;;;;;4976022;28;20257;-83
2023/05/17 07:25:03;;;;;;;12.25;7.32;;;15.90;99.90;;;;;;4976364;28;20221;-83
2023/05/17 07:27:29;;;;;;;11.00;7.75;;;15.90;99.90;;;;;;4992120;28;20250;-84
2023/05/17 07:29:55;;;;;;;12.02;7.50;;;16.00;99.90;;;;;;4992223;28;20233;-83
2023/05/17 07:32:20;;;;;;;12.65;8.07;;;16.10;99.90;;;;;;4975922;28;20712;-83
2023/05/17 07:34:46;;;;;;;15.02;7.65;;;16.20;99.90;;;;;;4960271;28;20643;-83
2023/05/17 07:37:12;;;;;;;10.95;7.28;;;16.20;99.90;;;;;;4991771;28;20321;-83
2023/05/17 07:39:37;;;;;;;10.93;7.72;;;16.20;99.90;;;;;;4992239;28;20190;-84
2023/05/17 07:42:03;;;;;;;11.80;7.40;;;16.10;99.90;;;;;;4977040;28;20238;-84
2023/05/17 07:44:29;;;;;;;12.52;8.20;;;16.10;99.90;;;;;;4991851;28;20702;-85
2023/05/17 07:46:54;;;;;;;13.55;7.85;;;16.00;99.90;;;;;;4975823;28;20210;-85
2023/05/17 07:49:22;;;;;;;14.57;6.95;;;16.00;99.90;;;;;;4992605;28;20210;-90
2023/05/17 07:51:48;;;;;;;12.48;7.53;;;16.00;99.90;;;;;;4992319;28;20182;-85
2023/05/17 07:54:27;;;;;;;13.35;8.88;;;16.10;99.90;;;;;;4992191;28;20190;-85
2023/05/17 07:56:54;;;;;;;12.13;7.97;;;16.10;99.90;;;;;;4976673;28;20162;-85
2023/05/17 07:59:23;;;;;;;11.77;7.60;;;16.10;99.90;;;;;;4991420;28;20205;-85
2023/05/17 08:01:49;;;;;;;11.75;7.75;;;16.10;99.90;;;;;;4976717;28;20625;-85
2023/05/17 08:04:15;;;;;;;9.77;7.18;;;16.10;99.90;;;;;;4959306;28;20185;-85
2023/05/17 08:06:42;;;;;;;8.95;6.75;;;16.10;99.90;;;;;;4976719;28;20289;-85
2023/05/17 08:09:08;;;;;;;11.98;7.75;;;16.20;99.90;;;;;;4975558;28;20666;-84
2023/05/17 08:11:33;;;;;;;9.88;6.57;;;16.30;99.90;;;;;;4975824;28;20190;-85
2023/05/17 08:14:02;;;;;;;14.40;7.63;;;16.30;99.90;;;;;;4991925;28;20189;-86
2023/05/17 08:16:28;;;;;;;11.18;7.80;;;16.30;99.90;;;;;;4959415;28;20253;-87
2023/05/17 08:18:53;;;;;;;11.05;7.60;;;16.40;99.90;;;;;;4977516;28;20178;-85
2023/05/17 08:21:19;;;;;;;10.18;7.25;;;16.40;99.90;;;;;;4975145;28;20193;-84
2023/05/17 08:23:45;;;;;;;12.48;7.20;;;16.40;99.90;;;;;;4977022;28;20261;-85
2023/05/17 08:26:11;;;;;;;11.00;7.30;;;16.40;99.90;;;;;;4991462;28;20214;-85
2023/05/17 08:28:38;;;;;;;12.00;7.97;;;16.40;99.90;;;;;;4991168;28;20595;-86
2023/05/17 08:31:05;;;;;;;10.15;6.82;;;16.40;99.90;;;;;;4975038;28;20367;-85
2023/05/17 08:33:31;;;;;;;10.90;7.22;;;16.30;99.90;;;;;;4974779;28;20229;-84
2023/05/17 08:36:00;;;;;;;10.50;7.70;;;16.30;99.90;;;;;;4975148;28;20282;-85
2023/05/17 08:38:25;;;;;;;11.32;7.78;;;16.20;99.90;;;;;;4975773;28;20182;-85
2023/05/17 08:40:58;;;;;;;9.52;6.93;;;16.20;99.90;;;;;;4976263;28;20565;-88
2023/05/17 08:43:24;;;;;;;11.00;7.88;;;16.10;99.90;;;;;;4976423;28;20234;-83
2023/05/17 08:45:51;;;;;;;11.88;7.63;;;16.10;99.90;;;;;;4975521;28;20577;-85
2023/05/17 08:48:20;;;;;;;9.88;7.47;;;16.10;99.90;;;;;;4975039;28;20609;-85
2023/05/17 08:50:49;;;;;;;9.95;7.38;;;16.00;99.90;;;;;;4990513;28;20258;-85
2023/05/17 08:53:16;;;;;;;10.27;7.40;;;16.10;99.90;;;;;;4976662;28;20179;-88
2023/05/17 08:55:44;;;;;;;11.45;7.70;;;16.00;99.90;;;;;;4976249;28;20175;-85
2023/05/17 08:58:10;;;;;;;15.13;7.72;;;16.00;99.90;;;;;;4974561;28;20178;-85
2023/05/17 09:00:37;;;;;;;17.38;8.23;;;16.00;99.90;;;;;;4974357;28;20514;-84
2023/05/17 09:03:03;;;;;;;12.73;7.88;;;16.00;99.90;;;;;;4974439;28;20214;-85
2023/05/17 09:05:28;;;;;;;12.43;7.75;;;16.00;99.90;;;;;;4975779;28;20218;-84
2023/05/17 09:07:56;;;;;;;10.88;7.45;;;16.00;99.90;;;;;;4974767;28;20186;-83
2023/05/17 09:10:21;;;;;;;12.25;7.72;;;16.10;99.90;;;;;;4975885;28;20183;-85
2023/05/17 09:12:47;;;;;;;11.57;7.13;;;16.10;99.90;;;;;;4974046;28;20656;-88
2023/05/17 09:15:18;;;;;;;12.98;8.50;;;16.10;99.90;;;;;;4974158;28;20183;-84
2023/05/17 09:17:54;;;;;;;11.63;7.72;;;16.00;99.90;;;;;;4990942;28;20220;-84
2023/05/17 09:20:23;;;;;;;11.07;8.07;;;15.90;99.90;;;;;;4976110;28;20298;-85
2023/05/17 09:22:50;;;;;;;11.60;8.23;;;15.90;99.90;;;;;;4990218;28;20270;-84
2023/05/17 09:25:22;;;;;;;10.27;8.00;;;16.00;99.90;;;;;;4989918;28;20266;-84
2023/05/17 09:27:51;;;;;;;13.23;8.73;;;16.00;99.90;;;;;;4975087;28;20288;-84
2023/05/17 09:30:17;;;;;;;12.10;8.20;;;16.00;99.90;;;;;;4974333;28;20662;-84
2023/05/17 09:32:46;;;;;;;11.43;8.25;;;16.00;99.90;;;;;;4976393;28;20183;-83
2023/05/17 09:35:12;;;;;;;11.80;8.10;;;16.00;99.90;;;;;;4982010;28;20183;-83
2023/05/17 09:37:39;;;;;;;13.85;9.00;;;16.00;99.90;;;;;;4987050;28;20194;-83
2023/05/17 09:40:06;;;;;;;14.63;8.45;;;16.00;99.90;;;;;;4988631;28;20214;-83
2023/05/17 09:42:38;;;;;;;12.82;8.57;;;16.00;99.90;;;;;;4988444;28;20234;-83
2023/05/17 09:45:04;;;;;;;12.00;8.75;;;16.00;99.90;;;;;;5003959;28;20235;-83
2023/05/17 09:47:32;;;;;;;14.32;8.52;;;16.00;99.90;;;;;;4977264;28;20207;-84
2023/05/17 09:50:02;;;;;;;13.63;9.15;;;16.00;99.90;;;;;;4976362;28;20210;-84
2023/05/17 09:52:31;;;;;;;18.80;9.57;;;16.00;99.90;;;;;;4959262;28;20242;-83
2023/05/17 09:54:58;;;;;;;15.27;10.23;;;15.90;99.90;;;;;;4976160;28;20174;-84
2023/05/17 09:57:26;;;;;;;21.42;12.27;;;15.90;99.90;;;;;;4976999;28;20186;-84
2023/05/17 09:59:56;;;;;;;15.20;9.52;;;15.90;99.90;;;;;;4980040;28;20198;-84
2023/05/17 10:02:26;;;;;;;12.38;8.48;;;15.80;99.90;;;;;;4980513;28;20178;-83
2023/05/17 10:04:55;;;;;;;12.10;8.50;;;15.70;99.90;;;;;;4987747;28;20263;-84
2023/05/17 10:07:24;;;;;;;11.50;8.65;;;15.60;99.90;;;;;;4998863;28;20198;-83
2023/05/17 10:09:52;;;;;;;14.70;8.25;;;15.70;99.90;;;;;;4998413;28;20146;-83
2023/05/17 10:12:21;;;;;;;15.25;8.85;;;15.60;99.90;;;;;;4998728;28;20167;-84
2023/05/17 10:14:47;;;;;;;19.75;9.38;;;15.60;99.90;;;;;;4988276;28;20182;-83
2023/05/17 10:17:13;;;;;;;12.60;8.98;;;15.60;99.90;;;;;;5001681;28;20178;-83
2023/05/17 10:19:40;;;;;;;15.90;9.32;;;15.60;99.90;;;;;;4995385;28;20543;-83
2023/05/17 10:22:06;;;;;;;15.40;9.73;;;15.50;99.90;;;;;;4998559;28;20189;-83
2023/05/17 10:24:34;;;;;;;14.75;9.40;;;15.40;99.90;;;;;;4998346;28;20179;-83
2023/05/17 10:27:01;;;;;;;15.45;9.23;;;15.40;99.90;;;;;;4982616;28;20201;-83
2023/05/17 10:29:27;;;;;;;12.00;8.20;;;15.40;99.90;;;;;;4974399;28;20266;-83
2023/05/17 10:31:54;;;;;;;14.10;8.15;;;15.40;99.90;;;;;;4974611;28;20274;-83
2023/05/17 10:34:20;;;;;;;15.18;8.95;;;15.40;99.90;;;;;;4974877;28;20190;-83
2023/05/17 10:36:48;;;;;;;13.65;8.18;;;15.30;99.90;;;;;;4976701;28;20195;-82
2023/05/17 10:39:14;;;;;;;15.23;10.07;;;15.20;99.90;;;;;;4961283;28;20647;-83
2023/05/17 10:41:42;;;;;;;16.27;10.40;;;15.10;99.90;;;;;;4978765;28;20226;-82
2023/05/17 10:44:13;;;;;;;14.00;9.07;;;15.10;99.90;;;;;;4978947;28;20233;-83
2023/05/17 10:46:39;;;;;;;13.23;9.45;;;15.10;99.90;;;;;;4977438;28;20300;-83
2023/05/17 10:49:05;;;;;;;16.83;9.55;;;15.10;99.90;;;;;;4994538;28;20583;-84
2023/05/17 10:51:36;;;;;;;14.20;8.85;;;15.00;99.90;;;;;;4980871;28;20286;-83
2023/05/17 10:54:12;;;;;;;13.85;8.82;;;15.00;99.90;;;;;;4999798;28;20218;-83
2023/05/17 10:56:50;;;;;;;14.02;9.07;;;15.00;99.90;;;;;;5001855;28;20181;-84
2023/05/17 10:59:22;;;;;;;13.35;8.63;;;14.90;99.90;;;;;;4978507;28;20174;-84
2023/05/17 11:02:00;;;;;;;13.88;8.98;;;14.90;99.90;;;;;;4978024;28;20163;-84
2023/05/17 11:04:27;;;;;;;13.00;8.48;;;14.80;99.90;;;;;;4978334;28;20711;-85
2023/05/17 11:07:13;;;;;;;14.82;10.35;;;14.80;99.90;;;;;;4977881;28;20206;-86
2023/05/17 11:09:39;;;;;;;15.65;10.65;;;14.70;99.90;;;;;;4977700;28;20528;-87
2023/05/17 11:12:08;;;;;;;13.88;9.35;;;14.60;99.90;;;;;;4976760;28;20197;-85
2023/05/17 11:14:45;;;;;;;23.23;14.07;;;14.50;99.90;;;;;;4977956;28;20170;-85
2023/05/17 11:17:16;;;;;;;18.77;10.90;;;14.40;99.90;;;;;;4977649;28;20214;-85
2023/05/17 11:19:58;;;;;;;14.98;9.45;;;14.40;99.90;;;;;;4977502;28;20151;-85
2023/05/17 11:22:25;;;;;;;12.90;8.60;;;14.40;99.90;;;;;;4976723;28;20262;-86
2023/05/17 11:24:52;;;;;;;12.50;8.30;;;14.30;99.90;;;;;;4959878;28;20178;-84
2023/05/17 11:27:19;;;;;;;11.63;7.85;;;14.20;99.90;;;;;;4979083;28;20222;-84
2023/05/17 11:29:48;;;;;;;12.13;7.65;;;14.20;99.90;;;;;;4979481;28;20186;-84
2023/05/17 11:32:14;;;;;;;13.40;8.73;;;14.20;99.90;;;;;;4977483;28;20218;-85
2023/05/17 11:34:39;;;;;;;13.82;8.48;;;14.10;99.90;;;;;;4992141;28;20214;-85
2023/05/17 11:37:10;;;;;;;11.70;8.07;;;14.20;99.90;;;;;;4976915;28;20237;-84
2023/05/17 11:39:36;;;;;;;14.38;7.93;;;14.20;99.90;;;;;;4977465;28;20159;-86
2023/05/17 11:42:02;;;;;;;11.52;7.63;;;14.20;99.90;;;;;;4975329;28;20580;-84
2023/05/17 11:44:30;;;;;;;15.10;8.30;;;14.10;99.90;;;;;;4977448;28;20632;-84
2023/05/17 11:47:08;;;;;;;10.60;7.07;;;14.20;99.90;;;;;;4975995;28;20198;-85
2023/05/17 11:49:36;;;;;;;10.80;7.38;;;14.10;99.90;;;;;;4978323;28;20193;-84
2023/05/17 11:52:05;;;;;;;11.65;7.72;;;14.10;99.90;;;;;;4976970;28;20174;-84
2023/05/17 11:54:31;;;;;;;11.73;7.38;;;14.10;99.90;;;;;;4977556;28;20181;-84
2023/05/17 11:56:59;;;;;;;12.80;7.30;;;14.10;99.90;;;;;;4977015;28;20188;-84
2023/05/17 11:59:24;;;;;;;11.15;6.90;;;14.10;99.90;;;;;;4975422;28;20193;-84
2023/05/17 12:01:50;;;;;;;9.85;6.47;;;14.10;99.90;;;;;;4975858;28;20183;-84
2023/05/17 12:04:26;;;;;;;11.02;6.03;;;14.00;99.90;;;;;;4976919;28;20174;-85
2023/05/17 12:06:53;;;;;;;12.23;6.68;;;14.00;99.90;;;;;;4976792;28;20213;-84
2023/05/17 12:09:21;;;;;;;7.00;5.38;;;13.90;99.90;;;;;;4976641;28;20241;-84
2023/05/17 12:11:46;;;;;;;8.02;4.82;;;13.80;99.90;;;;;;4977083;28;20184;-84
2023/05/17 12:14:19;;;;;;;8.48;5.80;;;13.70;99.90;;;;;;4986297;28;20266;-84
2023/05/17 12:16:49;;;;;;;8.75;5.88;;;13.60;99.90;;;;;;4976092;28;20198;-83
2023/05/17 12:19:21;;;;;;;7.72;5.35;;;13.60;99.90;;;;;;4992628;28;20178;-84
2023/05/17 12:21:50;;;;;;;6.70;4.63;;;13.60;99.90;;;;;;4998668;28;20213;-84
2023/05/17 12:24:16;;;;;;;7.57;5.03;;;13.60;99.90;;;;;;4992690;28;20179;-84
2023/05/17 12:26:46;;;;;;;7.30;4.95;;;13.70;99.90;;;;;;4982306;28;20209;-84
2023/05/17 12:29:13;;;;;;;5.55;4.30;;;13.70;99.90;;;;;;4989644;28;20210;-85
2023/05/17 12:31:59;;;;;;;6.65;4.60;;;13.70;99.90;;;;;;5007760;28;20189;-84
2023/05/17 12:34:26;;;;;;;7.15;4.80;;;13.60;99.90;;;;;;4993849;28;20162;-83
2023/05/17 12:36:53;;;;;;;5.30;3.88;;;13.60;99.90;;;;;;5000671;28;20229;-84
2023/05/17 12:39:22;;;;;;;7.95;4.88;;;13.50;99.90;;;;;;4976350;28;20186;-84
2023/05/17 12:41:52;;;;;;;8.10;4.60;;;13.50;99.90;;;;;;4976669;28;20699;-84
2023/05/17 12:44:19;;;;;;;5.32;3.60;;;13.50;99.90;;;;;;4962478;28;20182;-83